sensor_id;sensor_type;location;lat;lon;timestamp;P1;durP1;ratioP1;P2;durP2;ratioP2
11082;SDS011;5595;50.186;8.468;2023-05-14T00:00:56;1.50;;;1.17;;
11082;SDS011;5595;50.186;8.468;2023-05-14T00:03:23;0.97;;;0.70;;
11082;SDS011;5595;50.186;8.468;2023-05-14T00:05:50;1.30;;;1.20;;
11082;SDS011;5595;50.186;8.468;2023-05-14T00:08:17;1.10;;;1.00;;
11082;SDS011;5595;50.186;8.468;2023-05-14T00:10:44;1.37;;;1.23;;
11082;SDS011;5595;50.186;8.468;2023-05-14T00:13:12;1.57;;;1.33;;
11082;SDS011;5595;50.186;8.468;2023-05-14T00:15:39;0.97;;;0.97;;
11082;SDS011;5595;50.186;8.468;2023-05-14T00:18:06;1.13;;;1.03;;
11082;SDS011;5595;50.186;8.468;2023-05-14T00:20:36;1.20;;;1.10;;
11082;SDS011;5595;50.186;8.468;2023-05-14T00:23:02;1.10;;;1.00;;
11082;SDS011;5595;50.186;8.468;2023-05-14T00:25:29;1.23;;;1.00;;
11082;SDS011;5595;50.186;8.468;2023-05-14T00:27:56;1.17;;;1.07;;
11082;SDS011;5595;50.186;8.468;2023-05-14T00:30:24;1.03;;;1.03;;
11082;SDS011;5595;50.186;8.468;2023-05-14T00:32:51;0.97;;;0.90;;
11082;SDS011;5595;50.186;8.468;2023-05-14T00:35:18;5.67;;;1.20;;
11082;SDS011;5595;50.186;8.468;2023-05-14T00:37:45;1.53;;;0.90;;
11082;SDS011;5595;50.186;8.468;2023-05-14T00:40:12;1.63;;;1.00;;
11082;SDS011;5595;50.186;8.468;2023-05-14T00:42:39;1.33;;;1.00;;
11082;SDS011;5595;50.186;8.468;2023-05-14T00:45:06;1.00;;;1.00;;
11082;SDS011;5595;50.186;8.468;2023-05-14T00:47:35;2.43;;;0.90;;
11082;SDS011;5595;50.186;8.468;2023-05-14T00:50:03;1.00;;;0.90;;
11082;SDS011;5595;50.186;8.468;2023-05-14T00:52:31;1.03;;;0.80;;
11082;SDS011;5595;50.186;8.468;2023-05-14T00:54:58;4.03;;;0.90;;
11082;SDS011;5595;50.186;8.468;2023-05-14T00:57:28;1.23;;;1.13;;
11082;SDS011;5595;50.186;8.468;2023-05-14T00:59:55;0.80;;;0.80;;
11082;SDS011;5595;50.186;8.468;2023-05-14T01:02:22;1.47;;;1.00;;
11082;SDS011;5595;50.186;8.468;2023-05-14T01:04:50;1.20;;;1.10;;
11082;SDS011;5595;50.186;8.468;2023-05-14T01:07:19;1.17;;;0.97;;
11082;SDS011;5595;50.186;8.468;2023-05-14T01:09:56;0.97;;;0.97;;
11082;SDS011;5595;50.186;8.468;2023-05-14T01:12:29;2.10;;;1.20;;
11082;SDS011;5595;50.186;8.468;2023-05-14T01:15:05;1.57;;;0.97;;
11082;SDS011;5595;50.186;8.468;2023-05-14T01:17:37;2.30;;;0.80;;
11082;SDS011;5595;50.186;8.468;2023-05-14T01:20:09;0.87;;;0.87;;
11082;SDS011;5595;50.186;8.468;2023-05-14T01:22:38;1.47;;;0.97;;
11082;SDS011;5595;50.186;8.468;2023-05-14T01:25:06;5.60;;;1.30;;
11082;SDS011;5595;50.186;8.468;2023-05-14T01:27:34;1.63;;;1.00;;
11082;SDS011;5595;50.186;8.468;2023-05-14T01:30:08;0.80;;;0.80;;
11082;SDS011;5595;50.186;8.468;2023-05-14T01:32:42;1.93;;;1.03;;
11082;SDS011;5595;50.186;8.468;2023-05-14T01:35:12;0.80;;;0.80;;
11082;SDS011;5595;50.186;8.468;2023-05-14T01:37:41;0.77;;;0.77;;
11082;SDS011;5595;50.186;8.468;2023-05-14T01:40:09;0.70;;;0.70;;
11082;SDS011;5595;50.186;8.468;2023-05-14T01:42:38;1.10;;;0.83;;
11082;SDS011;5595;50.186;8.468;2023-05-14T01:45:05;3.30;;;1.07;;
11082;SDS011;5595;50.186;8.468;2023-05-14T01:47:33;1.03;;;0.97;;
11082;SDS011;5595;50.186;8.468;2023-05-14T01:50:00;0.77;;;0.77;;
11082;SDS011;5595;50.186;8.468;2023-05-14T01:52:27;1.37;;;0.93;;
11082;SDS011;5595;50.186;8.468;2023-05-14T01:54:55;0.60;;;0.60;;
11082;SDS011;5595;50.186;8.468;2023-05-14T01:57:24;1.60;;;0.77;;
11082;SDS011;5595;50.186;8.468;2023-05-14T01:59:50;1.10;;;1.00;;
11082;SDS011;5595;50.186;8.468;2023-05-14T02:02:17;1.10;;;1.00;;
11082;SDS011;5595;50.186;8.468;2023-05-14T02:04:44;0.93;;;0.93;;
11082;SDS011;5595;50.186;8.468;2023-05-14T02:07:11;2.63;;;0.90;;
11082;SDS011;5595;50.186;8.468;2023-05-14T02:09:38;0.77;;;0.77;;
11082;SDS011;5595;50.186;8.468;2023-05-14T02:12:07;0.73;;;0.73;;
11082;SDS011;5595;50.186;8.468;2023-05-14T02:14:35;0.80;;;0.70;;
11082;SDS011;5595;50.186;8.468;2023-05-14T02:17:02;1.30;;;1.10;;
11082;SDS011;5595;50.186;8.468;2023-05-14T02:19:29;2.47;;;1.10;;
11082;SDS011;5595;50.186;8.468;2023-05-14T02:21:57;0.70;;;0.70;;
11082;SDS011;5595;50.186;8.468;2023-05-14T02:24:25;0.53;;;0.53;;
11082;SDS011;5595;50.186;8.468;2023-05-14T02:26:51;0.77;;;0.77;;
11082;SDS011;5595;50.186;8.468;2023-05-14T02:29:20;0.80;;;0.80;;
11082;SDS011;5595;50.186;8.468;2023-05-14T02:31:46;0.93;;;0.93;;
11082;SDS011;5595;50.186;8.468;2023-05-14T02:34:13;0.57;;;0.57;;
11082;SDS011;5595;50.186;8.468;2023-05-14T02:36:40;0.67;;;0.67;;
11082;SDS011;5595;50.186;8.468;2023-05-14T02:39:07;1.20;;;0.70;;
11082;SDS011;5595;50.186;8.468;2023-05-14T02:41:34;0.57;;;0.57;;
11082;SDS011;5595;50.186;8.468;2023-05-14T02:44:01;0.57;;;0.57;;
11082;SDS011;5595;50.186;8.468;2023-05-14T02:46:29;0.70;;;0.70;;
11082;SDS011;5595;50.186;8.468;2023-05-14T02:48:56;0.63;;;0.63;;
11082;SDS011;5595;50.186;8.468;2023-05-14T02:51:23;0.63;;;0.60;;
11082;SDS011;5595;50.186;8.468;2023-05-14T02:53:51;0.97;;;0.90;;
11082;SDS011;5595;50.186;8.468;2023-05-14T02:56:17;0.83;;;0.83;;
11082;SDS011;5595;50.186;8.468;2023-05-14T02:58:45;0.77;;;0.70;;
11082;SDS011;5595;50.186;8.468;2023-05-14T03:01:12;0.63;;;0.63;;
11082;SDS011;5595;50.186;8.468;2023-05-14T03:03:40;1.10;;;1.00;;
11082;SDS011;5595;50.186;8.468;2023-05-14T03:06:07;1.20;;;1.00;;
11082;SDS011;5595;50.186;8.468;2023-05-14T03:08:34;0.90;;;0.70;;
11082;SDS011;5595;50.186;8.468;2023-05-14T03:11:01;0.70;;;0.70;;
11082;SDS011;5595;50.186;8.468;2023-05-14T03:13:27;0.87;;;0.70;;
11082;SDS011;5595;50.186;8.468;2023-05-14T03:15:54;0.73;;;0.73;;
11082;SDS011;5595;50.186;8.468;2023-05-14T03:18:21;0.63;;;0.60;;
11082;SDS011;5595;50.186;8.468;2023-05-14T03:20:50;1.43;;;0.83;;
11082;SDS011;5595;50.186;8.468;2023-05-14T03:23:16;1.00;;;0.87;;
11082;SDS011;5595;50.186;8.468;2023-05-14T03:25:43;0.87;;;0.80;;
11082;SDS011;5595;50.186;8.468;2023-05-14T03:28:10;0.70;;;0.60;;
11082;SDS011;5595;50.186;8.468;2023-05-14T03:30:37;0.90;;;0.77;;
11082;SDS011;5595;50.186;8.468;2023-05-14T03:33:04;1.17;;;0.93;;
11082;SDS011;5595;50.186;8.468;2023-05-14T03:35:31;1.30;;;0.73;;
11082;SDS011;5595;50.186;8.468;2023-05-14T03:37:59;0.67;;;0.67;;
11082;SDS011;5595;50.186;8.468;2023-05-14T03:40:26;2.43;;;0.80;;
11082;SDS011;5595;50.186;8.468;2023-05-14T03:42:53;1.00;;;0.77;;
11082;SDS011;5595;50.186;8.468;2023-05-14T03:45:20;0.80;;;0.80;;
11082;SDS011;5595;50.186;8.468;2023-05-14T03:47:47;0.60;;;0.60;;
11082;SDS011;5595;50.186;8.468;2023-05-14T03:50:14;1.13;;;0.73;;
11082;SDS011;5595;50.186;8.468;2023-05-14T03:52:40;0.67;;;0.63;;
11082;SDS011;5595;50.186;8.468;2023-05-14T03:55:09;0.60;;;0.60;;
11082;SDS011;5595;50.186;8.468;2023-05-14T03:57:37;0.70;;;0.60;;
11082;SDS011;5595;50.186;8.468;2023-05-14T04:00:04;1.00;;;0.80;;
11082;SDS011;5595;50.186;8.468;2023-05-14T04:02:32;0.93;;;0.70;;
11082;SDS011;5595;50.186;8.468;2023-05-14T04:04:58;0.57;;;0.50;;
11082;SDS011;5595;50.186;8.468;2023-05-14T04:07:25;0.87;;;0.73;;
11082;SDS011;5595;50.186;8.468;2023-05-14T04:09:53;0.73;;;0.53;;
11082;SDS011;5595;50.186;8.468;2023-05-14T04:12:23;0.93;;;0.63;;
11082;SDS011;5595;50.186;8.468;2023-05-14T04:14:51;0.50;;;0.50;;
11082;SDS011;5595;50.186;8.468;2023-05-14T04:17:20;0.80;;;0.80;;
11082;SDS011;5595;50.186;8.468;2023-05-14T04:19:47;0.93;;;0.63;;
11082;SDS011;5595;50.186;8.468;2023-05-14T04:22:14;0.63;;;0.63;;
11082;SDS011;5595;50.186;8.468;2023-05-14T04:24:41;0.70;;;0.63;;
11082;SDS011;5595;50.186;8.468;2023-05-14T04:27:08;0.73;;;0.70;;
11082;SDS011;5595;50.186;8.468;2023-05-14T04:29:36;0.73;;;0.60;;
11082;SDS011;5595;50.186;8.468;2023-05-14T04:32:03;0.70;;;0.70;;
11082;SDS011;5595;50.186;8.468;2023-05-14T04:34:30;0.90;;;0.90;;
11082;SDS011;5595;50.186;8.468;2023-05-14T04:36:59;0.77;;;0.63;;
11082;SDS011;5595;50.186;8.468;2023-05-14T04:39:35;0.47;;;0.47;;
11082;SDS011;5595;50.186;8.468;2023-05-14T04:42:02;1.20;;;0.60;;
11082;SDS011;5595;50.186;8.468;2023-05-14T04:44:30;0.90;;;0.70;;
11082;SDS011;5595;50.186;8.468;2023-05-14T04:47:03;1.03;;;0.87;;
11082;SDS011;5595;50.186;8.468;2023-05-14T04:49:31;1.17;;;0.87;;
11082;SDS011;5595;50.186;8.468;2023-05-14T04:52:04;0.80;;;0.70;;
11082;SDS011;5595;50.186;8.468;2023-05-14T04:54:37;0.90;;;0.90;;
11082;SDS011;5595;50.186;8.468;2023-05-14T04:57:06;0.50;;;0.50;;
11082;SDS011;5595;50.186;8.468;2023-05-14T04:59:33;0.90;;;0.80;;
11082;SDS011;5595;50.186;8.468;2023-05-14T05:02:00;5.93;;;3.43;;
11082;SDS011;5595;50.186;8.468;2023-05-14T05:04:28;1.53;;;1.40;;
11082;SDS011;5595;50.186;8.468;2023-05-14T05:06:55;2.33;;;2.13;;
11082;SDS011;5595;50.186;8.468;2023-05-14T05:09:21;3.60;;;1.50;;
11082;SDS011;5595;50.186;8.468;2023-05-14T05:11:48;3.43;;;1.10;;
11082;SDS011;5595;50.186;8.468;2023-05-14T05:14:15;1.53;;;1.43;;
11082;SDS011;5595;50.186;8.468;2023-05-14T05:16:42;1.40;;;1.17;;
11082;SDS011;5595;50.186;8.468;2023-05-14T05:19:09;1.17;;;1.07;;
11082;SDS011;5595;50.186;8.468;2023-05-14T05:21:37;1.17;;;0.97;;
11082;SDS011;5595;50.186;8.468;2023-05-14T05:24:07;3.20;;;1.30;;
11082;SDS011;5595;50.186;8.468;2023-05-14T05:26:34;1.40;;;0.87;;
11082;SDS011;5595;50.186;8.468;2023-05-14T05:29:01;1.10;;;1.00;;
11082;SDS011;5595;50.186;8.468;2023-05-14T05:31:34;1.07;;;0.97;;
11082;SDS011;5595;50.186;8.468;2023-05-14T05:34:01;1.67;;;1.00;;
11082;SDS011;5595;50.186;8.468;2023-05-14T05:36:28;1.47;;;0.77;;
11082;SDS011;5595;50.186;8.468;2023-05-14T05:38:57;1.17;;;1.03;;
11082;SDS011;5595;50.186;8.468;2023-05-14T05:41:29;1.93;;;1.00;;
11082;SDS011;5595;50.186;8.468;2023-05-14T05:43:56;1.00;;;1.00;;
11082;SDS011;5595;50.186;8.468;2023-05-14T05:46:23;1.30;;;1.20;;
11082;SDS011;5595;50.186;8.468;2023-05-14T05:48:50;2.53;;;0.90;;
11082;SDS011;5595;50.186;8.468;2023-05-14T05:51:18;1.53;;;1.10;;
11082;SDS011;5595;50.186;8.468;2023-05-14T05:53:47;1.20;;;1.10;;
11082;SDS011;5595;50.186;8.468;2023-05-14T05:56:15;1.15;;;1.02;;
11082;SDS011;5595;50.186;8.468;2023-05-14T05:58:42;1.40;;;1.17;;
11082;SDS011;5595;50.186;8.468;2023-05-14T06:01:09;1.60;;;1.50;;
11082;SDS011;5595;50.186;8.468;2023-05-14T06:03:38;5.00;;;1.20;;
11082;SDS011;5595;50.186;8.468;2023-05-14T06:06:05;1.10;;;1.10;;
11082;SDS011;5595;50.186;8.468;2023-05-14T06:08:32;0.98;;;0.98;;
11082;SDS011;5595;50.186;8.468;2023-05-14T06:11:01;1.15;;;1.13;;
11082;SDS011;5595;50.186;8.468;2023-05-14T06:13:30;0.82;;;0.65;;
11082;SDS011;5595;50.186;8.468;2023-05-14T06:15:57;1.35;;;1.27;;
11082;SDS011;5595;50.186;8.468;2023-05-14T06:18:26;1.35;;;1.23;;
11082;SDS011;5595;50.186;8.468;2023-05-14T06:20:53;1.05;;;0.93;;
11082;SDS011;5595;50.186;8.468;2023-05-14T06:23:21;1.60;;;1.35;;
11082;SDS011;5595;50.186;8.468;2023-05-14T06:25:48;0.90;;;0.68;;
11082;SDS011;5595;50.186;8.468;2023-05-14T06:28:15;1.58;;;0.95;;
11082;SDS011;5595;50.186;8.468;2023-05-14T06:30:43;1.52;;;1.20;;
11082;SDS011;5595;50.186;8.468;2023-05-14T06:33:10;1.48;;;0.70;;
11082;SDS011;5595;50.186;8.468;2023-05-14T06:35:37;1.50;;;1.17;;
11082;SDS011;5595;50.186;8.468;2023-05-14T06:38:04;1.38;;;1.27;;
11082;SDS011;5595;50.186;8.468;2023-05-14T06:40:31;2.55;;;0.88;;
11082;SDS011;5595;50.186;8.468;2023-05-14T06:42:58;1.30;;;1.20;;
11082;SDS011;5595;50.186;8.468;2023-05-14T06:45:25;1.10;;;0.88;;
11082;SDS011;5595;50.186;8.468;2023-05-14T06:47:54;2.33;;;1.48;;
11082;SDS011;5595;50.186;8.468;2023-05-14T06:50:20;1.17;;;0.98;;
11082;SDS011;5595;50.186;8.468;2023-05-14T06:52:47;1.67;;;1.08;;
11082;SDS011;5595;50.186;8.468;2023-05-14T06:55:14;1.55;;;0.95;;
11082;SDS011;5595;50.186;8.468;2023-05-14T06:57:41;1.10;;;1.02;;
11082;SDS011;5595;50.186;8.468;2023-05-14T07:00:09;1.17;;;1.00;;
11082;SDS011;5595;50.186;8.468;2023-05-14T07:02:36;1.50;;;1.20;;
11082;SDS011;5595;50.186;8.468;2023-05-14T07:05:05;1.33;;;1.20;;
11082;SDS011;5595;50.186;8.468;2023-05-14T07:07:33;1.20;;;1.10;;
11082;SDS011;5595;50.186;8.468;2023-05-14T07:10:00;1.38;;;1.17;;
11082;SDS011;5595;50.186;8.468;2023-05-14T07:12:27;1.42;;;1.33;;
11082;SDS011;5595;50.186;8.468;2023-05-14T07:14:54;1.20;;;1.10;;
11082;SDS011;5595;50.186;8.468;2023-05-14T07:17:21;2.45;;;1.55;;
11082;SDS011;5595;50.186;8.468;2023-05-14T07:19:48;1.73;;;1.48;;
11082;SDS011;5595;50.186;8.468;2023-05-14T07:22:16;1.17;;;1.08;;
11082;SDS011;5595;50.186;8.468;2023-05-14T07:24:43;1.27;;;1.13;;
11082;SDS011;5595;50.186;8.468;2023-05-14T07:27:10;1.58;;;1.42;;
11082;SDS011;5595;50.186;8.468;2023-05-14T07:29:37;1.23;;;0.98;;
11082;SDS011;5595;50.186;8.468;2023-05-14T07:32:04;2.50;;;0.93;;
11082;SDS011;5595;50.186;8.468;2023-05-14T07:34:31;2.10;;;1.25;;
11082;SDS011;5595;50.186;8.468;2023-05-14T07:36:57;2.53;;;1.48;;
11082;SDS011;5595;50.186;8.468;2023-05-14T07:39:26;1.92;;;1.70;;
11082;SDS011;5595;50.186;8.468;2023-05-14T07:41:53;1.15;;;1.05;;
11082;SDS011;5595;50.186;8.468;2023-05-14T07:44:20;1.25;;;1.15;;
11082;SDS011;5595;50.186;8.468;2023-05-14T07:46:46;1.50;;;1.40;;
11082;SDS011;5595;50.186;8.468;2023-05-14T07:49:13;1.65;;;1.30;;
11082;SDS011;5595;50.186;8.468;2023-05-14T07:51:40;1.08;;;0.55;;
11082;SDS011;5595;50.186;8.468;2023-05-14T07:54:07;1.35;;;1.23;;
11082;SDS011;5595;50.186;8.468;2023-05-14T07:56:36;1.30;;;1.20;;
11082;SDS011;5595;50.186;8.468;2023-05-14T07:59:03;2.25;;;1.35;;
11082;SDS011;5595;50.186;8.468;2023-05-14T08:01:31;1.50;;;1.20;;
11082;SDS011;5595;50.186;8.468;2023-05-14T08:03:58;1.70;;;1.08;;
11082;SDS011;5595;50.186;8.468;2023-05-14T08:06:24;1.95;;;1.10;;
11082;SDS011;5595;50.186;8.468;2023-05-14T08:08:52;1.42;;;1.20;;
11082;SDS011;5595;50.186;8.468;2023-05-14T08:11:19;1.20;;;1.15;;
11082;SDS011;5595;50.186;8.468;2023-05-14T08:13:47;0.98;;;0.88;;
11082;SDS011;5595;50.186;8.468;2023-05-14T08:16:14;0.80;;;0.80;;
11082;SDS011;5595;50.186;8.468;2023-05-14T08:18:41;0.65;;;0.65;;
11082;SDS011;5595;50.186;8.468;2023-05-14T08:21:08;0.80;;;0.80;;
11082;SDS011;5595;50.186;8.468;2023-05-14T08:23:35;0.57;;;0.57;;
11082;SDS011;5595;50.186;8.468;2023-05-14T08:26:02;0.90;;;0.75;;
11082;SDS011;5595;50.186;8.468;2023-05-14T08:28:28;0.80;;;0.80;;
11082;SDS011;5595;50.186;8.468;2023-05-14T08:30:57;0.57;;;0.57;;
11082;SDS011;5595;50.186;8.468;2023-05-14T08:33:25;0.90;;;0.90;;
11082;SDS011;5595;50.186;8.468;2023-05-14T08:35:55;3.05;;;0.73;;
11082;SDS011;5595;50.186;8.468;2023-05-14T08:38:24;1.73;;;0.55;;
11082;SDS011;5595;50.186;8.468;2023-05-14T08:40:52;1.88;;;0.73;;
11082;SDS011;5595;50.186;8.468;2023-05-14T08:43:23;1.65;;;1.00;;
11082;SDS011;5595;50.186;8.468;2023-05-14T08:45:53;0.82;;;0.77;;
11082;SDS011;5595;50.186;8.468;2023-05-14T08:48:24;1.10;;;1.00;;
11082;SDS011;5595;50.186;8.468;2023-05-14T08:50:54;0.75;;;0.75;;
11082;SDS011;5595;50.186;8.468;2023-05-14T08:53:26;1.77;;;0.75;;
11082;SDS011;5595;50.186;8.468;2023-05-14T08:55:53;1.85;;;0.70;;
11082;SDS011;5595;50.186;8.468;2023-05-14T08:58:23;1.17;;;0.90;;
11082;SDS011;5595;50.186;8.468;2023-05-14T09:00:52;0.90;;;0.90;;
11082;SDS011;5595;50.186;8.468;2023-05-14T09:03:20;0.65;;;0.65;;
11082;SDS011;5595;50.186;8.468;2023-05-14T09:05:49;0.70;;;0.70;;
11082;SDS011;5595;50.186;8.468;2023-05-14T09:08:18;0.75;;;0.75;;
11082;SDS011;5595;50.186;8.468;2023-05-14T09:10:45;0.70;;;0.57;;
11082;SDS011;5595;50.186;8.468;2023-05-14T09:13:12;0.65;;;0.60;;
11082;SDS011;5595;50.186;8.468;2023-05-14T09:15:39;0.88;;;0.80;;
11082;SDS011;5595;50.186;8.468;2023-05-14T09:18:06;0.73;;;0.73;;
11082;SDS011;5595;50.186;8.468;2023-05-14T09:20:33;0.77;;;0.77;;
11082;SDS011;5595;50.186;8.468;2023-05-14T09:23:01;0.70;;;0.70;;
11082;SDS011;5595;50.186;8.468;2023-05-14T09:25:29;1.10;;;0.60;;
11082;SDS011;5595;50.186;8.468;2023-05-14T09:27:57;0.60;;;0.60;;
11082;SDS011;5595;50.186;8.468;2023-05-14T09:30:24;0.57;;;0.57;;
11082;SDS011;5595;50.186;8.468;2023-05-14T09:32:55;1.00;;;0.60;;
11082;SDS011;5595;50.186;8.468;2023-05-14T09:35:22;0.75;;;0.75;;
11082;SDS011;5595;50.186;8.468;2023-05-14T09:37:50;0.65;;;0.65;;
11082;SDS011;5595;50.186;8.468;2023-05-14T09:40:20;0.80;;;0.80;;
11082;SDS011;5595;50.186;8.468;2023-05-14T09:42:49;0.98;;;0.50;;
11082;SDS011;5595;50.186;8.468;2023-05-14T09:45:16;0.60;;;0.52;;
11082;SDS011;5595;50.186;8.468;2023-05-14T09:47:43;0.50;;;0.50;;
11082;SDS011;5595;50.186;8.468;2023-05-14T09:50:10;1.23;;;0.65;;
11082;SDS011;5595;50.186;8.468;2023-05-14T09:52:37;0.60;;;0.50;;
11082;SDS011;5595;50.186;8.468;2023-05-14T09:55:04;0.65;;;0.65;;
11082;SDS011;5595;50.186;8.468;2023-05-14T09:57:33;0.40;;;0.40;;
11082;SDS011;5595;50.186;8.468;2023-05-14T10:00:00;0.63;;;0.63;;
11082;SDS011;5595;50.186;8.468;2023-05-14T10:02:29;1.10;;;0.88;;
11082;SDS011;5595;50.186;8.468;2023-05-14T10:05:02;0.90;;;0.57;;
11082;SDS011;5595;50.186;8.468;2023-05-14T10:07:32;0.73;;;0.70;;
11082;SDS011;5595;50.186;8.468;2023-05-14T10:10:05;0.65;;;0.65;;
11082;SDS011;5595;50.186;8.468;2023-05-14T10:12:35;0.50;;;0.50;;
11082;SDS011;5595;50.186;8.468;2023-05-14T10:15:08;0.50;;;0.50;;
11082;SDS011;5595;50.186;8.468;2023-05-14T10:17:40;1.17;;;0.65;;
11082;SDS011;5595;50.186;8.468;2023-05-14T10:20:12;0.70;;;0.68;;
11082;SDS011;5595;50.186;8.468;2023-05-14T10:22:41;0.60;;;0.60;;
11082;SDS011;5595;50.186;8.468;2023-05-14T10:25:09;0.75;;;0.57;;
11082;SDS011;5595;50.186;8.468;2023-05-14T10:27:38;0.95;;;0.70;;
11082;SDS011;5595;50.186;8.468;2023-05-14T10:30:09;0.88;;;0.68;;
11082;SDS011;5595;50.186;8.468;2023-05-14T10:32:37;0.75;;;0.55;;
11082;SDS011;5595;50.186;8.468;2023-05-14T10:35:14;0.88;;;0.80;;
11082;SDS011;5595;50.186;8.468;2023-05-14T10:37:49;0.60;;;0.60;;
11082;SDS011;5595;50.186;8.468;2023-05-14T10:40:16;0.63;;;0.52;;
11082;SDS011;5595;50.186;8.468;2023-05-14T10:42:45;1.40;;;0.80;;
11082;SDS011;5595;50.186;8.468;2023-05-14T10:45:12;1.20;;;1.00;;
11082;SDS011;5595;50.186;8.468;2023-05-14T10:47:41;0.63;;;0.63;;
11082;SDS011;5595;50.186;8.468;2023-05-14T10:50:09;3.88;;;1.05;;
11082;SDS011;5595;50.186;8.468;2023-05-14T10:52:39;1.08;;;0.98;;
11082;SDS011;5595;50.186;8.468;2023-05-14T10:55:08;1.33;;;1.00;;
11082;SDS011;5595;50.186;8.468;2023-05-14T10:57:38;0.77;;;0.77;;
11082;SDS011;5595;50.186;8.468;2023-05-14T11:00:09;0.63;;;0.63;;
11082;SDS011;5595;50.186;8.468;2023-05-14T11:02:38;0.93;;;0.77;;
11082;SDS011;5595;50.186;8.468;2023-05-14T11:05:06;1.27;;;0.77;;
11082;SDS011;5595;50.186;8.468;2023-05-14T11:07:36;1.02;;;1.02;;
11082;SDS011;5595;50.186;8.468;2023-05-14T11:10:04;0.82;;;0.80;;
11082;SDS011;5595;50.186;8.468;2023-05-14T11:12:38;1.13;;;1.05;;
11082;SDS011;5595;50.186;8.468;2023-05-14T11:15:06;0.80;;;0.80;;
11082;SDS011;5595;50.186;8.468;2023-05-14T11:17:36;1.42;;;0.90;;
11082;SDS011;5595;50.186;8.468;2023-05-14T11:20:05;0.68;;;0.68;;
11082;SDS011;5595;50.186;8.468;2023-05-14T11:22:33;0.73;;;0.70;;
11082;SDS011;5595;50.186;8.468;2023-05-14T11:25:01;0.95;;;0.70;;
11082;SDS011;5595;50.186;8.468;2023-05-14T11:27:28;0.82;;;0.75;;
11082;SDS011;5595;50.186;8.468;2023-05-14T11:29:58;0.80;;;0.80;;
11082;SDS011;5595;50.186;8.468;2023-05-14T11:32:30;0.55;;;0.55;;
11082;SDS011;5595;50.186;8.468;2023-05-14T11:34:57;0.73;;;0.70;;
11082;SDS011;5595;50.186;8.468;2023-05-14T11:37:24;0.70;;;0.65;;
11082;SDS011;5595;50.186;8.468;2023-05-14T11:39:51;1.05;;;0.70;;
11082;SDS011;5595;50.186;8.468;2023-05-14T11:42:20;0.73;;;0.60;;
11082;SDS011;5595;50.186;8.468;2023-05-14T11:44:48;0.65;;;0.65;;
11082;SDS011;5595;50.186;8.468;2023-05-14T11:47:18;0.70;;;0.70;;
11082;SDS011;5595;50.186;8.468;2023-05-14T11:49:48;1.23;;;0.60;;
11082;SDS011;5595;50.186;8.468;2023-05-14T11:52:15;1.27;;;0.63;;
11082;SDS011;5595;50.186;8.468;2023-05-14T11:54:45;0.98;;;0.98;;
11082;SDS011;5595;50.186;8.468;2023-05-14T11:57:14;1.08;;;0.98;;
11082;SDS011;5595;50.186;8.468;2023-05-14T11:59:42;0.85;;;0.70;;
11082;SDS011;5595;50.186;8.468;2023-05-14T12:02:10;0.45;;;0.40;;
11082;SDS011;5595;50.186;8.468;2023-05-14T12:04:38;1.20;;;0.80;;
11082;SDS011;5595;50.186;8.468;2023-05-14T12:07:08;1.15;;;0.85;;
11082;SDS011;5595;50.186;8.468;2023-05-14T12:09:36;0.98;;;0.98;;
11082;SDS011;5595;50.186;8.468;2023-05-14T12:12:09;0.70;;;0.70;;
11082;SDS011;5595;50.186;8.468;2023-05-14T12:14:37;0.77;;;0.77;;
11082;SDS011;5595;50.186;8.468;2023-05-14T12:17:17;0.90;;;0.80;;
11082;SDS011;5595;50.186;8.468;2023-05-14T12:19:48;0.70;;;0.70;;
11082;SDS011;5595;50.186;8.468;2023-05-14T12:22:18;0.63;;;0.60;;
11082;SDS011;5595;50.186;8.468;2023-05-14T12:24:51;1.00;;;0.90;;
11082;SDS011;5595;50.186;8.468;2023-05-14T12:27:20;0.60;;;0.60;;
11082;SDS011;5595;50.186;8.468;2023-05-14T12:29:48;0.50;;;0.50;;
11082;SDS011;5595;50.186;8.468;2023-05-14T12:32:17;0.90;;;0.60;;
11082;SDS011;5595;50.186;8.468;2023-05-14T12:34:45;1.02;;;0.73;;
11082;SDS011;5595;50.186;8.468;2023-05-14T12:37:11;1.10;;;0.80;;
11082;SDS011;5595;50.186;8.468;2023-05-14T12:39:40;0.68;;;0.50;;
11082;SDS011;5595;50.186;8.468;2023-05-14T12:42:07;0.70;;;0.70;;
11082;SDS011;5595;50.186;8.468;2023-05-14T12:44:33;0.70;;;0.57;;
11082;SDS011;5595;50.186;8.468;2023-05-14T12:47:00;0.63;;;0.63;;
11082;SDS011;5595;50.186;8.468;2023-05-14T12:49:27;0.70;;;0.70;;
11082;SDS011;5595;50.186;8.468;2023-05-14T12:51:54;1.38;;;0.63;;
11082;SDS011;5595;50.186;8.468;2023-05-14T12:54:21;0.95;;;0.80;;
11082;SDS011;5595;50.186;8.468;2023-05-14T12:56:49;3.53;;;0.52;;
11082;SDS011;5595;50.186;8.468;2023-05-14T12:59:16;0.98;;;0.65;;
11082;SDS011;5595;50.186;8.468;2023-05-14T13:01:43;0.45;;;0.45;;
11082;SDS011;5595;50.186;8.468;2023-05-14T13:04:10;1.33;;;0.80;;
11082;SDS011;5595;50.186;8.468;2023-05-14T13:06:37;0.50;;;0.50;;
11082;SDS011;5595;50.186;8.468;2023-05-14T13:09:04;0.60;;;0.43;;
11082;SDS011;5595;50.186;8.468;2023-05-14T13:11:32;0.38;;;0.38;;
11082;SDS011;5595;50.186;8.468;2023-05-14T13:14:03;0.75;;;0.50;;
11082;SDS011;5595;50.186;8.468;2023-05-14T13:16:30;0.40;;;0.40;;
11082;SDS011;5595;50.186;8.468;2023-05-14T13:18:57;1.27;;;0.60;;
11082;SDS011;5595;50.186;8.468;2023-05-14T13:21:24;0.40;;;0.40;;
11082;SDS011;5595;50.186;8.468;2023-05-14T13:23:50;0.40;;;0.40;;
11082;SDS011;5595;50.186;8.468;2023-05-14T13:26:17;0.60;;;0.60;;
11082;SDS011;5595;50.186;8.468;2023-05-14T13:28:44;0.73;;;0.50;;
11082;SDS011;5595;50.186;8.468;2023-05-14T13:31:12;0.40;;;0.40;;
11082;SDS011;5595;50.186;8.468;2023-05-14T13:33:40;0.50;;;0.50;;
11082;SDS011;5595;50.186;8.468;2023-05-14T13:36:07;0.50;;;0.45;;
11082;SDS011;5595;50.186;8.468;2023-05-14T13:38:36;0.30;;;0.30;;
11082;SDS011;5595;50.186;8.468;2023-05-14T13:41:03;0.55;;;0.50;;
11082;SDS011;5595;50.186;8.468;2023-05-14T13:43:30;0.30;;;0.30;;
11082;SDS011;5595;50.186;8.468;2023-05-14T13:45:58;0.43;;;0.43;;
11082;SDS011;5595;50.186;8.468;2023-05-14T13:48:27;0.47;;;0.47;;
11082;SDS011;5595;50.186;8.468;2023-05-14T13:50:55;0.93;;;0.68;;
11082;SDS011;5595;50.186;8.468;2023-05-14T13:53:23;0.45;;;0.45;;
11082;SDS011;5595;50.186;8.468;2023-05-14T13:55:50;0.32;;;0.32;;
11082;SDS011;5595;50.186;8.468;2023-05-14T13:58:20;0.30;;;0.30;;
11082;SDS011;5595;50.186;8.468;2023-05-14T14:00:47;0.60;;;0.50;;
11082;SDS011;5595;50.186;8.468;2023-05-14T14:03:14;1.55;;;0.60;;
11082;SDS011;5595;50.186;8.468;2023-05-14T14:05:42;0.60;;;0.60;;
11082;SDS011;5595;50.186;8.468;2023-05-14T14:08:09;0.40;;;0.40;;
11082;SDS011;5595;50.186;8.468;2023-05-14T14:10:36;0.45;;;0.45;;
11082;SDS011;5595;50.186;8.468;2023-05-14T14:13:05;0.32;;;0.32;;
11082;SDS011;5595;50.186;8.468;2023-05-14T14:15:32;0.30;;;0.30;;
11082;SDS011;5595;50.186;8.468;2023-05-14T14:17:59;0.30;;;0.30;;
11082;SDS011;5595;50.186;8.468;2023-05-14T14:20:26;0.43;;;0.43;;
11082;SDS011;5595;50.186;8.468;2023-05-14T14:22:54;2.55;;;0.55;;
11082;SDS011;5595;50.186;8.468;2023-05-14T14:25:21;0.40;;;0.40;;
11082;SDS011;5595;50.186;8.468;2023-05-14T14:27:48;1.23;;;0.52;;
11082;SDS011;5595;50.186;8.468;2023-05-14T14:30:15;0.40;;;0.40;;
11082;SDS011;5595;50.186;8.468;2023-05-14T14:32:43;1.35;;;0.50;;
11082;SDS011;5595;50.186;8.468;2023-05-14T14:35:10;0.88;;;0.40;;
11082;SDS011;5595;50.186;8.468;2023-05-14T14:37:39;0.77;;;0.57;;
11082;SDS011;5595;50.186;8.468;2023-05-14T14:40:10;0.30;;;0.30;;
11082;SDS011;5595;50.186;8.468;2023-05-14T14:42:37;0.57;;;0.40;;
11082;SDS011;5595;50.186;8.468;2023-05-14T14:45:04;0.40;;;0.40;;
11082;SDS011;5595;50.186;8.468;2023-05-14T14:47:32;0.30;;;0.30;;
11082;SDS011;5595;50.186;8.468;2023-05-14T14:49:59;0.45;;;0.40;;
11082;SDS011;5595;50.186;8.468;2023-05-14T14:52:26;1.33;;;0.52;;
11082;SDS011;5595;50.186;8.468;2023-05-14T14:54:54;0.40;;;0.40;;
11082;SDS011;5595;50.186;8.468;2023-05-14T14:57:22;0.40;;;0.40;;
11082;SDS011;5595;50.186;8.468;2023-05-14T14:59:50;0.30;;;0.30;;
11082;SDS011;5595;50.186;8.468;2023-05-14T15:02:17;0.30;;;0.30;;
11082;SDS011;5595;50.186;8.468;2023-05-14T15:04:44;0.30;;;0.30;;